createdAt,value
2024-02-18T00:01:07.388Z,81.26
2024-02-18T00:06:29.557Z,81.48
2024-02-18T00:11:32.956Z,82.16
2024-02-18T00:16:36.387Z,82.56
2024-02-18T00:21:39.713Z,82.91
2024-02-18T00:26:53.943Z,83.24
2024-02-18T00:32:01.477Z,83.65
2024-02-18T00:37:05.263Z,83.42
2024-02-18T00:42:10.048Z,83.33
2024-02-18T00:47:13.572Z,83.14
2024-02-18T00:52:17.093Z,83.13
2024-02-18T00:57:20.762Z,83.35
2024-02-18T01:02:24.223Z,83.84
2024-02-18T01:07:27.438Z,84.15
2024-02-18T01:12:30.799Z,84.69
2024-02-18T01:17:34.216Z,84.94
2024-02-18T01:22:37.792Z,85.35
2024-02-18T01:27:41.124Z,85.37
2024-02-18T01:32:44.376Z,85.79
2024-02-18T01:37:47.625Z,86.01
2024-02-18T01:42:50.851Z,86.54
2024-02-18T01:47:54.515Z,85.96
2024-02-18T01:52:58.088Z,86.31
2024-02-18T01:58:03.269Z,86.43
2024-02-18T02:03:09.138Z,86.56
2024-02-18T02:08:12.428Z,86.66
2024-02-18T02:13:15.640Z,86.76
2024-02-18T02:18:18.861Z,86.95
2024-02-18T02:23:22.161Z,86.94
2024-02-18T02:28:30.313Z,86.97
2024-02-18T02:33:33.438Z,87.19
2024-02-18T02:38:37.838Z,87.14
2024-02-18T02:43:41.050Z,87.25
2024-02-18T02:48:44.229Z,87.33
2024-02-18T02:53:47.516Z,87.40
2024-02-18T02:58:50.822Z,87.41
2024-02-18T03:03:54.240Z,87.52
2024-02-18T03:08:57.422Z,87.60
2024-02-18T03:14:00.420Z,87.70
2024-02-18T03:19:03.686Z,87.82
2024-02-18T03:24:07.061Z,87.97
2024-02-18T03:29:12.009Z,88.00
2024-02-18T03:34:15.189Z,88.18
2024-02-18T03:39:21.295Z,88.33
2024-02-18T03:44:26.147Z,88.33
2024-02-18T03:49:30.860Z,88.40
2024-02-18T03:54:35.016Z,88.46
2024-02-18T03:59:38.130Z,88.35
2024-02-18T04:04:41.368Z,88.39
2024-02-18T04:09:44.741Z,88.43
2024-02-18T04:14:47.972Z,88.45
2024-02-18T04:19:51.203Z,88.47
2024-02-18T04:24:54.416Z,88.50
2024-02-18T04:29:57.809Z,88.70
2024-02-18T04:35:01.051Z,88.81
2024-02-18T04:40:05.520Z,88.74
2024-02-18T04:45:09.434Z,88.84
2024-02-18T04:50:12.496Z,88.84
2024-02-18T04:55:15.769Z,88.85
2024-02-18T05:00:19.228Z,88.87
2024-02-18T05:05:22.335Z,88.91
2024-02-18T05:10:26.060Z,88.98
2024-02-18T05:15:29.226Z,89.04
2024-02-18T05:20:32.384Z,89.08
2024-02-18T05:25:35.600Z,89.09
2024-02-18T05:30:38.841Z,89.06
2024-02-18T05:35:42.256Z,88.46
2024-02-18T05:40:45.430Z,88.84
2024-02-18T05:45:48.491Z,88.98
2024-02-18T05:50:51.968Z,89.03
2024-02-18T05:55:55.166Z,89.09
2024-02-18T06:00:58.487Z,89.19
2024-02-18T06:06:01.949Z,89.55
2024-02-18T06:11:08.720Z,90.00
2024-02-18T06:16:12.118Z,90.94
2024-02-18T06:21:22.538Z,92.08
2024-02-18T06:26:26.220Z,91.76
2024-02-18T06:31:29.448Z,89.76
2024-02-18T06:36:37.552Z,86.19
2024-02-18T06:41:41.072Z,80.39
2024-02-18T06:46:44.278Z,76.65
2024-02-18T06:51:47.629Z,72.64
2024-02-18T06:56:50.804Z,67.55
2024-02-18T07:01:54.044Z,64.42
2024-02-18T07:06:57.308Z,65.03
2024-02-18T07:12:00.650Z,65.13
2024-02-18T07:17:04.127Z,59.59
2024-02-18T07:22:08.128Z,59.61
2024-02-18T07:27:11.435Z,60.88
2024-02-18T07:32:15.557Z,61.08
2024-02-18T07:37:19.042Z,59.31
2024-02-18T07:42:22.671Z,56.40
2024-02-18T07:47:26.108Z,54.06
2024-02-18T07:52:29.553Z,54.96
2024-02-18T07:57:32.962Z,54.55
2024-02-18T08:02:36.566Z,53.68
2024-02-18T08:07:40.235Z,55.43
2024-02-18T08:12:43.768Z,59.08
2024-02-18T08:17:48.747Z,61.53
2024-02-18T08:22:52.318Z,65.04
2024-02-18T08:27:55.861Z,66.39
2024-02-18T08:32:59.858Z,66.29
2024-02-18T08:38:03.343Z,66.71
2024-02-18T08:43:06.708Z,66.71
2024-02-18T08:48:10.206Z,67.54
2024-02-18T08:53:13.572Z,69.01
2024-02-18T08:58:16.843Z,69.40
2024-02-18T09:03:20.387Z,69.65
2024-02-18T09:08:24.078Z,70.19
2024-02-18T09:13:27.261Z,70.70
2024-02-18T09:18:30.624Z,70.95
2024-02-18T09:23:34.104Z,71.18
2024-02-18T09:28:37.284Z,71.69
2024-02-18T09:33:43.670Z,72.13
2024-02-18T09:38:47.090Z,72.53
2024-02-18T09:43:53.275Z,73.44
2024-02-18T09:48:56.874Z,73.80
2024-02-18T09:54:00.731Z,74.06
2024-02-18T09:59:03.880Z,73.76
2024-02-18T10:04:07.330Z,73.17
2024-02-18T10:09:10.961Z,72.73
2024-02-18T10:14:14.375Z,72.78
2024-02-18T10:19:17.934Z,72.41
2024-02-18T10:24:25.575Z,71.94
2024-02-18T10:29:28.826Z,71.86
2024-02-18T10:34:32.025Z,72.07
2024-02-18T10:39:39.670Z,71.83
2024-02-18T10:44:46.446Z,71.33
2024-02-18T10:49:59.376Z,70.54
2024-02-18T10:55:07.905Z,70.33
2024-02-18T11:00:13.902Z,69.64
2024-02-18T11:05:19.979Z,69.60
2024-02-18T11:10:23.988Z,69.61
2024-02-18T11:15:27.271Z,69.30
2024-02-18T11:20:31.489Z,68.21
2024-02-18T11:25:35.361Z,66.82
2024-02-18T11:30:38.708Z,67.04
2024-02-18T11:35:41.805Z,66.77
2024-02-18T11:40:49.212Z,67.06
2024-02-18T11:45:57.005Z,67.41
2024-02-18T11:51:00.372Z,67.26
2024-02-18T11:56:04.421Z,67.00
2024-02-18T12:01:08.136Z,66.90
2024-02-18T12:06:11.644Z,65.09
2024-02-18T12:11:17.631Z,65.46
2024-02-18T12:16:21.511Z,65.12
2024-02-18T12:21:24.853Z,64.28
2024-02-18T12:26:28.062Z,64.63
2024-02-18T12:31:31.578Z,63.70
2024-02-18T12:36:35.150Z,65.35
2024-02-18T12:41:38.515Z,64.19
2024-02-18T12:46:42.958Z,65.58
2024-02-18T12:51:50.378Z,65.22
2024-02-18T12:56:53.892Z,65.03
2024-02-18T13:01:57.942Z,64.61
2024-02-18T13:07:11.460Z,63.83
2024-02-18T13:12:14.775Z,64.14
2024-02-18T13:17:18.326Z,63.36
2024-02-18T13:22:21.605Z,64.61
2024-02-18T13:27:25.024Z,65.14
2024-02-18T13:32:28.405Z,65.22
2024-02-18T13:37:32.175Z,64.82
2024-02-18T13:42:35.573Z,64.70
2024-02-18T13:47:39.167Z,64.51
2024-02-18T13:52:42.335Z,65.86
2024-02-18T13:57:45.550Z,66.25
2024-02-18T14:02:48.578Z,66.00
2024-02-18T14:07:51.848Z,65.76
2024-02-18T14:12:54.992Z,64.36
2024-02-18T14:17:59.676Z,61.11
2024-02-18T14:23:03.294Z,60.18
2024-02-18T14:28:10.610Z,61.00
2024-02-18T14:33:13.998Z,62.04
2024-02-18T14:38:18.102Z,62.53
2024-02-18T14:43:21.353Z,61.39
2024-02-18T14:48:24.757Z,60.17
2024-02-18T14:53:28.634Z,59.32
2024-02-18T14:58:32.159Z,61.04
2024-02-18T15:03:35.833Z,62.02
2024-02-18T15:08:39.080Z,61.90
2024-02-18T15:13:42.394Z,61.55
2024-02-18T15:18:45.411Z,61.06
2024-02-18T15:23:48.454Z,59.62
2024-02-18T15:28:51.565Z,60.12
2024-02-18T15:33:54.987Z,62.49
2024-02-18T15:38:58.479Z,64.47
2024-02-18T15:44:02.012Z,63.78
2024-02-18T15:49:05.426Z,63.31
2024-02-18T15:54:08.698Z,62.79
2024-02-18T15:59:11.959Z,63.09
2024-02-18T16:04:15.290Z,62.93
2024-02-18T16:09:18.999Z,62.89
2024-02-18T16:14:22.187Z,63.12
2024-02-18T16:19:25.362Z,63.13
2024-02-18T16:24:29.574Z,63.17
2024-02-18T16:29:34.074Z,63.95
2024-02-18T16:34:37.328Z,64.00
2024-02-18T16:39:46.156Z,64.61
2024-02-18T16:44:49.573Z,64.97
2024-02-18T16:49:53.113Z,65.77
2024-02-18T16:54:56.720Z,66.03
2024-02-18T17:00:00.204Z,66.30
2024-02-18T17:05:07.271Z,66.69
2024-02-18T17:10:11.372Z,67.30
2024-02-18T17:15:14.731Z,68.08
2024-02-18T17:20:18.184Z,67.92
2024-02-18T17:25:21.967Z,65.92
2024-02-18T17:30:26.333Z,66.04
2024-02-18T17:35:30.652Z,67.67
2024-02-18T17:40:33.960Z,69.66
2024-02-18T17:45:37.201Z,70.93
2024-02-18T17:50:41.460Z,72.11
2024-02-18T17:55:49.119Z,72.86
2024-02-18T18:00:52.343Z,72.94
2024-02-18T18:05:55.667Z,73.09
2024-02-18T18:10:59.786Z,73.52
2024-02-18T18:16:08.522Z,73.72
2024-02-18T18:21:12.466Z,73.95
2024-02-18T18:26:15.767Z,74.08
2024-02-18T18:31:19.070Z,73.82
2024-02-18T18:36:22.915Z,74.11
2024-02-18T18:41:26.217Z,74.52
2024-02-18T18:46:36.588Z,74.64
2024-02-18T18:51:39.861Z,74.70
2024-02-18T18:56:43.438Z,74.92
2024-02-18T19:01:46.743Z,75.13
2024-02-18T19:06:51.396Z,75.30
2024-02-18T19:11:54.695Z,75.31
2024-02-18T19:16:57.886Z,75.38
2024-02-18T19:22:01.275Z,75.48
2024-02-18T19:27:05.109Z,75.59
2024-02-18T19:32:08.571Z,75.58
2024-02-18T19:37:12.306Z,75.58
2024-02-18T19:42:16.144Z,75.57
2024-02-18T19:47:20.113Z,75.43
2024-02-18T19:52:23.484Z,75.63
2024-02-18T19:57:26.880Z,75.63
2024-02-18T20:02:29.994Z,75.57
2024-02-18T20:07:33.285Z,75.61
2024-02-18T20:12:37.589Z,75.56
2024-02-18T20:17:43.361Z,75.61
2024-02-18T20:22:46.524Z,75.59
2024-02-18T20:27:51.030Z,75.61
2024-02-18T20:32:54.205Z,75.60
2024-02-18T20:37:57.489Z,75.66
2024-02-18T20:43:02.895Z,75.86
2024-02-18T20:48:06.661Z,76.02
2024-02-18T20:53:11.746Z,76.18
2024-02-18T20:58:16.156Z,76.05
2024-02-18T21:03:20.975Z,75.84
2024-02-18T21:08:24.843Z,75.74
2024-02-18T21:13:28.678Z,75.72
2024-02-18T21:18:31.994Z,75.72
2024-02-18T21:23:36.331Z,75.74
2024-02-18T21:28:42.587Z,75.74
2024-02-18T21:33:47.858Z,75.77
2024-02-18T21:38:51.881Z,75.93
2024-02-18T21:43:55.144Z,76.15
2024-02-18T21:48:58.359Z,76.07
2024-02-18T21:54:01.484Z,75.93
2024-02-18T21:59:05.158Z,75.90
2024-02-18T22:04:08.414Z,75.84
2024-02-18T22:09:11.672Z,75.89
2024-02-18T22:14:14.783Z,76.12
2024-02-18T22:19:18.369Z,76.14
2024-02-18T22:24:23.978Z,76.30
2024-02-18T22:29:27.281Z,76.56
2024-02-18T22:34:30.576Z,76.79
2024-02-18T22:39:33.851Z,77.03
2024-02-18T22:44:39.319Z,77.15
2024-02-18T22:49:42.713Z,77.21
2024-02-18T22:54:48.606Z,77.38
2024-02-18T22:59:51.793Z,77.51
2024-02-18T23:04:55.395Z,77.44
2024-02-18T23:09:58.622Z,77.38
2024-02-18T23:15:02.032Z,77.32
2024-02-18T23:20:06.528Z,77.20
2024-02-18T23:25:09.756Z,77.12
2024-02-18T23:30:13.477Z,77.10
2024-02-18T23:35:19.937Z,76.97
2024-02-18T23:40:23.237Z,76.87
2024-02-18T23:45:26.554Z,76.72
2024-02-18T23:50:29.729Z,76.54
2024-02-18T23:55:32.954Z,76.37
